Time;durP1;ratioP1;P1;durP2;ratioP2;P2;SDS_P1;SDS_P2;PMS_P1;PMS_P2;Temp;Humidity;BMP_temperature;BMP_pressure;BME280_temperature;BME280_humidity;BME280_pressure;Samples;Min_cycle;Max_cycle;Signal;HPM_P1;HPM_P2
2021/08/26 00:00:28;;;;;;;;;11.75;11.75;;;;;18.98;57.52;101515.13;6319260;22;45444;-96
2021/08/26 00:06:16;;;;;;;;;;;;;;;;;;;;;
2021/08/26 00:08:50;;;;;;;;;12.25;11.00;;;;;19.13;58.16;101553.75;6346439;22;74558;-96
2021/08/26 00:11:49;;;;;;;;;;;;;;;;;;;;;
2021/08/26 00:18:00;;;;;;;;;;;;;;;;;;;;;
2021/08/26 00:21:28;;;;;;;;;;;;;;;;;;;;;
2021/08/26 00:24:38;;;;;;;;;;;;;;;;;;;;;
2021/08/26 00:27:54;;;;;;;;;;;;;;;;;;;;;
2021/08/26 00:34:39;;;;;;;;;13.50;12.25;;;;;18.74;59.39;101546.19;6172659;23;45409;-96
2021/08/26 00:38:24;;;;;;;;;;;;;;;;;;;;;
2021/08/26 00:41:35;;;;;;;;;;;;;;;;;;;;;
2021/08/26 01:20:09;;;;;;;;;;;;;;;;;;;;;
2021/08/26 01:23:45;;;;;;;;;9.00;8.00;;;;;18.43;60.75;101562.44;6192098;23;74533;-96
2021/08/26 01:26:59;;;;;;;;;;;;;;;;;;;;;
2021/08/26 01:29:45;;;;;;;;;;;;;;;;;;;;;
2021/08/26 01:41:28;;;;;;;;;;;;;;;;;;;;;
2021/08/26 01:47:58;;;;;;;;;;;;;;;;;;;;;
2021/08/26 02:08:50;;;;;;;;;8.00;7.25;;;;;18.40;62.30;101587.19;5747048;24;44796;-96
2021/08/26 02:39:21;;;;;;;;;;;;;;;;;;;;;
2021/08/26 02:46:06;;;;;;;;;;;;;;;;;;;;;
2021/08/26 02:53:10;;;;;;;;;9.75;7.25;;;;;17.94;62.90;101543.84;5709681;25;45599;-96
2021/08/26 03:00:53;;;;;;;;;;;;;;;;;;;;;
2021/08/26 03:44:50;;;;;;;;;;;;;;;;;;;;;
2021/08/26 03:51:11;;;;;;;;;5.50;4.25;;;;;17.16;63.74;101472.44;6162052;23;44734;-96
2021/08/26 04:32:38;;;;;;;;;;;;;;;;;;;;;
2021/08/26 04:35:47;;;;;;;;;;;;;;;;;;;;;
2021/08/26 04:41:51;;;;;;;;;;;;;;;;;;;;;
2021/08/26 04:44:59;;;;;;;;;;;;;;;;;;;;;
2021/08/26 04:47:37;;;;;;;;;;;;;;;;;;;;;
2021/08/26 04:50:11;;;;;;;;;7.75;5.25;;;;;17.34;65.14;101556.91;6308267;22;68127;-96
2021/08/26 04:53:02;;;;;;;;;;;;;;;;;;;;;
2021/08/26 04:59:23;;;;;;;;;5.50;5.00;;;;;16.99;65.27;101523.50;6201820;22;45159;-96
2021/08/26 05:02:24;;;;;;;;;;;;;;;;;;;;;
2021/08/26 05:05:13;;;;;;;;;;;;;;;;;;;;;
2021/08/26 05:21:45;;;;;;;;;;;;;;;;;;;;;
2021/08/26 05:25:16;;;;;;;;;;;;;;;;;;;;;
2021/08/26 05:41:31;;;;;;;;;;;;;;;;;;;;;
2021/08/26 05:44:33;;;;;;;;;;;;;;;;;;;;;
2021/08/26 05:47:18;;;;;;;;;;;;;;;;;;;;;
2021/08/26 05:50:02;;;;;;;;;3.00;2.00;;;;;17.58;65.52;101581.22;5894137;24;72941;-96
2021/08/26 05:53:12;;;;;;;;;2.75;1.00;;;;;17.25;65.66;101510.53;5895141;24;44888;-96
2021/08/26 05:55:52;;;;;;;;;;;;;;;;;;;;;
2021/08/26 06:03:19;;;;;;;;;;;;;;;;;;;;;
2021/08/26 06:06:30;;;;;;;;;;;;;;;;;;;;;
2021/08/26 06:09:08;;;;;;;;;;;;;;;;;;;;;
2021/08/26 06:12:35;;;;;;;;;;;;;;;;;;;;;
2021/08/26 06:19:02;;;;;;;;;;;;;;;;;;;;;
2021/08/26 06:21:44;;;;;;;;;1.00;1.00;;;;;17.80;66.38;101591.19;6036113;23;69262;-96
2021/08/26 06:28:01;;;;;;;;;;;;;;;;;;;;;
2021/08/26 06:30:52;;;;;;;;;2.00;2.00;;;;;17.51;65.94;101531.97;5971479;23;69038;-96
2021/08/26 06:44:11;;;;;;;;;;;;;;;;;;;;;
2021/08/26 06:46:44;;;;;;;;;1.00;1.00;;;;;17.78;65.97;101546.97;5921024;24;70291;-96
2021/08/26 06:49:40;;;;;;;;;;;;;;;;;;;;;
2021/08/26 06:52:45;;;;;;;;;;;;;;;;;;;;;
2021/08/26 06:55:49;;;;;;;;;2.00;2.00;;;;;17.73;66.31;101526.63;5977285;23;68902;-96
2021/08/26 06:58:27;;;;;;;;;;;;;;;;;;;;;
2021/08/26 07:04:43;;;;;;;;;;;;;;;;;;;;;
2021/08/26 07:35:56;;;;;;;;;;;;;;;;;;;;;
2021/08/26 07:38:25;;;;;;;;;2.50;2.00;;;;;17.76;66.97;101474.78;6336496;22;75354;-96
2021/08/26 07:40:53;;;;;;;;;1.50;0.25;;;;;18.08;67.09;101534.56;6309792;22;45671;-95
2021/08/26 07:43:41;;;;;;;;;;;;;;;;;;;;;
2021/08/26 07:46:24;;;;;;;;;1.00;1.00;;;;;18.15;67.02;101529.47;6336526;22;69253;-95
2021/08/26 07:49:05;;;;;;;;;;;;;;;;;;;;;
2021/08/26 07:51:43;;;;;;;;;2.00;1.00;;;;;17.85;67.13;101485.72;6337665;22;72872;-96
2021/08/26 07:54:57;;;;;;;;;;;;;;;;;;;;;
2021/08/26 07:58:30;;;;;;;;;;;;;;;;;;;;;
2021/08/26 08:04:32;;;;;;;;;2.00;2.00;;;;;18.03;67.53;101504.19;6213062;22;45210;-96
2021/08/26 08:07:12;;;;;;;;;;;;;;;;;;;;;
2021/08/26 08:09:57;;;;;;;;;2.75;2.50;;;;;17.96;67.22;101471.22;6212505;22;70110;-96
2021/08/26 08:13:11;;;;;;;;;;;;;;;;;;;;;
2021/08/26 08:16:34;;;;;;;;;;;;;;;;;;;;;
2021/08/26 08:22:32;;;;;;;;;4.50;2.00;;;;;18.13;66.81;101488.84;6123232;23;45404;-95
2021/08/26 08:25:28;;;;;;;;;3.25;2.50;;;;;18.73;66.96;101582.56;6122023;23;46926;-96
2021/08/26 08:28:16;;;;;;;;;4.00;3.00;;;;;18.20;66.80;101486.47;6122940;23;45331;-96
2021/08/26 08:30:50;;;;;;;;;3.00;2.00;;;;;18.22;67.15;101481.75;6097748;23;44659;-96
2021/08/26 08:33:29;;;;;;;;;;;;;;;;;;;;;
2021/08/26 08:36:05;;;;;;;;;;;;;;;;;;;;;
2021/08/26 08:38:36;;;;;;;;;2.00;2.00;;;;;18.68;67.23;101535.84;6121856;23;72914;-95
2021/08/26 08:42:05;;;;;;;;;;;;;;;;;;;;;
2021/08/26 08:44:23;;;;;;;;;3.50;3.50;;;;;18.65;66.72;101542.44;6233557;22;45216;-96
2021/08/26 08:46:59;;;;;;;;;3.25;3.25;;;;;18.32;67.08;101490.84;6216982;22;47856;-95
2021/08/26 08:49:50;;;;;;;;;;;;;;;;;;;;;
2021/08/26 08:52:29;;;;;;;;;;;;;;;;;;;;;
2021/08/26 08:55:19;;;;;;;;;;;;;;;;;;;;;
2021/08/26 08:57:56;;;;;;;;;;;;;;;;;;;;;
2021/08/26 09:00:31;;;;;;;;;2.25;2.25;;;;;18.42;67.19;101488.19;6337502;22;72875;-96
2021/08/26 09:03:07;;;;;;;;;;;;;;;;;;;;;
2021/08/26 09:06:10;;;;;;;;;5.50;3.00;;;;;18.92;67.28;101555.47;6337912;22;69270;-96
2021/08/26 09:08:44;;;;;;;;;3.00;3.00;;;;;18.54;67.58;101483.53;6311381;22;46757;-96
2021/08/26 09:11:32;;;;;;;;;;;;;;;;;;;;;
2021/08/26 09:14:11;;;;;;;;;3.75;3.75;;;;;18.59;67.28;101478.56;6339193;22;68123;-96
2021/08/26 09:17:04;;;;;;;;;2.00;2.00;;;;;18.61;66.85;101482.00;6311872;22;45532;-96
2021/08/26 09:19:53;;;;;;;;;;;;;;;;;;;;;
2021/08/26 09:22:35;;;;;;;;;;;;;;;;;;;;;
2021/08/26 09:25:15;;;;;;;;;;;;;;;;;;;;;
2021/08/26 09:28:05;;;;;;;;;5.75;2.00;;;;;18.57;67.02;101471.53;6335221;22;69321;-96
2021/08/26 09:30:44;;;;;;;;;3.00;3.00;;;;;19.02;67.25;101541.09;6315404;22;46947;-96
2021/08/26 09:33:52;;;;;;;;;2.50;2.50;;;;;18.62;67.48;101475.56;6338595;22;44735;-96
2021/08/26 09:40:32;;;;;;;;;3.00;3.00;;;;;19.01;67.34;101520.31;6207016;22;45308;-96
2021/08/26 09:43:34;;;;;;;;;3.50;3.25;;;;;18.82;67.35;101472.94;6187080;22;45487;-96
2021/08/26 09:45:59;;;;;;;;;2.50;2.00;;;;;19.06;67.22;101499.84;6208397;22;45217;-96
2021/08/26 09:48:30;;;;;;;;;2.00;2.00;;;;;19.48;66.94;101577.81;6187539;22;45300;-96
2021/08/26 09:50:58;;;;;;;;;3.75;2.00;;;;;18.99;66.88;101489.66;6187386;22;45247;-96
2021/08/26 09:53:36;;;;;;;;;2.00;2.00;;;;;19.01;67.33;101484.94;6187219;22;47721;-95
2021/08/26 09:56:15;;;;;;;;;3.25;0.75;;;;;18.98;67.10;101471.59;6186728;22;45581;-96
2021/08/26 09:59:04;;;;;;;;;;;;;;;;;;;;;
2021/08/26 10:02:06;;;;;;;;;;;;;;;;;;;;;
2021/08/26 10:05:17;;;;;;;;;;;;;;;;;;;;;
2021/08/26 10:07:46;;;;;;;;;0.75;0.75;;;;;19.06;67.41;101458.19;6203515;22;72997;-96
2021/08/26 10:10:27;;;;;;;;;;;;;;;;;;;;;
2021/08/26 10:12:53;;;;;;;;;2.50;1.25;;;;;19.47;67.15;101521.63;6251376;22;69301;-96
2021/08/26 10:15:42;;;;;;;;;;;;;;;;;;;;;
2021/08/26 10:21:08;;;;;;;;;2.50;2.00;;;;;19.60;67.47;101515.91;6340377;22;44788;-96
2021/08/26 10:23:59;;;;;;;;;3.00;2.00;;;;;19.91;67.26;101550.44;6310421;22;45258;-96
2021/08/26 10:26:40;;;;;;;;;1.25;1.25;;;;;19.44;67.02;101461.16;6211432;22;46753;-96
2021/08/26 10:29:17;;;;;;;;;2.00;1.00;;;;;19.69;66.47;101487.84;6187678;22;45512;-95
2021/08/26 10:32:24;;;;;;;;;;;;;;;;;;;;;
2021/08/26 10:35:14;;;;;;;;;1.00;1.00;;;;;19.83;66.06;101491.16;6208931;22;68603;-96
2021/08/26 10:37:57;;;;;;;;;2.00;2.00;;;;;19.65;66.20;101463.75;6188819;22;47938;-96
2021/08/26 10:40:29;;;;;;;;;2.75;1.00;;;;;20.04;66.24;101528.31;6186745;22;46221;-96
2021/08/26 10:43:43;;;;;;;;;3.00;1.00;;;;;19.65;66.44;101474.66;6187149;22;45332;-95
2021/08/26 10:46:42;;;;;;;;;;;;;;;;;;;;;
2021/08/26 10:49:38;;;;;;;;;;;;;;;;;;;;;
2021/08/26 10:52:53;;;;;;;;;0.25;0.25;;;;;19.66;66.13;101462.75;6210733;22;72211;-96
2021/08/26 10:55:43;;;;;;;;;2.25;1.75;;;;;20.19;66.22;101548.72;6210699;22;45389;-96
2021/08/26 10:58:33;;;;;;;;;1.00;1.00;;;;;20.06;66.34;101529.94;6186736;22;45247;-95
2021/08/26 11:01:06;;;;;;;;;1.00;1.00;;;;;19.93;66.60;101522.03;6186993;22;46905;-96
2021/08/26 11:03:46;;;;;;;;;;;;;;;;;;;;;
2021/08/26 12:46:16;;;;;;;;;;;;;;;;;;;;;
2021/08/26 12:49:30;;;;;;;;;;;;;;;;;;;;;
2021/08/26 12:52:28;;;;;;;;;;;;;;;;;;;;;
2021/08/26 12:55:36;;;;;;;;;7.50;5.00;;;;;20.54;60.69;101521.81;6313162;22;72917;-96
2021/08/26 12:59:12;;;;;;;;;;;;;;;;;;;;;
2021/08/26 13:09:55;;;;;;;;;4.50;3.50;;;;;20.23;59.71;101462.06;5949555;23;45034;-96
2021/08/26 13:16:24;;;;;;;;;;;;;;;;;;;;;
2021/08/26 13:19:49;;;;;;;;;;;;;;;;;;;;;
2021/08/26 13:33:32;;;;;;;;;;;;;;;;;;;;;
2021/08/26 13:36:55;;;;;;;;;;;;;;;;;;;;;
2021/08/26 13:43:35;;;;;;;;;;;;;;;;;;;;;
2021/08/26 13:50:39;;;;;;;;;;;;;;;;;;;;;
2021/08/26 14:54:57;;;;;;;;;5.00;5.00;;;;;21.24;48.61;101439.59;5969241;23;46450;-96
2021/08/26 14:58:13;;;;;;;;;;;;;;;;;;;;;
2021/08/26 15:11:57;;;;;;;;;;;;;;;;;;;;;
2021/08/26 15:15:13;;;;;;;;;;;;;;;;;;;;;
2021/08/26 15:32:39;;;;;;;;;;;;;;;;;;;;;
2021/08/26 15:35:45;;;;;;;;;;;;;;;;;;;;;
2021/08/26 15:39:19;;;;;;;;;4.25;4.25;;;;;21.58;46.21;101433.44;5901127;24;68957;-96
2021/08/26 15:42:40;;;;;;;;;;;;;;;;;;;;;
2021/08/26 15:48:27;;;;;;;;;7.25;6.00;;;;;20.99;45.55;101360.09;6010626;23;44803;-96
2021/08/26 15:51:58;;;;;;;;;;;;;;;;;;;;;
2021/08/26 16:00:43;;;;;;;;;5.75;5.25;;;;;21.35;46.45;101416.63;5951741;23;45484;-96
2021/08/26 16:03:11;;;;;;;;;4.75;3.25;;;;;21.00;46.50;101355.53;5976584;23;45480;-96
2021/08/26 16:06:23;;;;;;;;;;;;;;;;;;;;;
2021/08/26 16:08:52;;;;;;;;;7.00;4.25;;;;;21.01;47.13;101366.28;5922321;24;74539;-96
2021/08/26 16:11:40;;;;;;;;;7.75;6.00;;;;;21.51;46.52;101449.59;5898438;24;45476;-96
2021/08/26 16:14:33;;;;;;;;;5.00;4.00;;;;;21.51;46.70;101446.88;5913928;24;45438;-96
2021/08/26 16:17:06;;;;;;;;;9.00;7.00;;;;;21.16;46.67;101395.78;5923403;23;45449;-96
2021/08/26 16:19:35;;;;;;;;;5.00;5.00;;;;;21.25;45.91;101424.03;5981270;23;47548;-96
2021/08/26 16:22:20;;;;;;;;;;;;;;;;;;;;;
2021/08/26 16:24:57;;;;;;;;;6.00;4.25;;;;;21.09;45.63;101402.88;6007189;23;68921;-96
2021/08/26 16:27:23;;;;;;;;;5.25;4.25;;;;;21.20;45.86;101421.78;5984401;23;44819;-96
2021/08/26 16:30:30;;;;;;;;;;;;;;;;;;;;;
2021/08/26 16:33:05;;;;;;;;;4.25;4.25;;;;;21.18;45.49;101427.38;6090768;23;71657;-96
2021/08/26 16:35:36;;;;;;;;;5.50;5.50;;;;;21.04;46.36;101409.66;6071023;23;45422;-96
2021/08/26 16:38:14;;;;;;;;;4.50;3.00;;;;;20.81;46.24;101360.06;6109368;22;44847;-96
2021/08/26 16:46:52;;;;;;;;;4.00;4.00;;;;;20.80;46.48;101371.16;6278697;22;45345;-96
2021/08/26 16:49:39;;;;;;;;;;;;;;;;;;;;;
2021/08/26 16:52:15;;;;;;;;;3.75;3.75;;;;;20.90;46.46;101397.34;6276364;22;73746;-96
2021/08/26 16:55:22;;;;;;;;;5.00;5.00;;;;;20.69;47.22;101386.66;6277906;22;45688;-96
2021/08/26 17:01:55;;;;;;;;;;;;;;;;;;;;;
2021/08/26 17:04:37;;;;;;;;;;;;;;;;;;;;;
2021/08/26 17:08:43;;;;;;;;;5.25;4.00;;;;;20.79;46.96;101422.13;6095433;23;71803;-96
2021/08/26 17:10:58;;;;;;;;;2.00;1.50;;;;;20.46;47.29;101364.38;6081563;23;44765;-96
2021/08/26 17:13:24;;;;;;;;;5.25;3.25;;;;;20.58;47.95;101395.03;6091992;23;45310;-96
2021/08/26 17:16:02;;;;;;;;;;;;;;;;;;;;;
2021/08/26 17:18:38;;;;;;;;;3.25;3.25;;;;;20.87;47.88;101441.34;6091272;23;72912;-96
2021/08/26 17:21:08;;;;;;;;;3.00;3.00;;;;;20.78;48.26;101425.03;6091850;23;45466;-96
2021/08/26 17:23:46;;;;;;;;;5.50;3.25;;;;;21.07;48.18;101476.75;6092483;23;45294;-96
2021/08/26 17:26:15;;;;;;;;;2.50;2.25;;;;;20.52;48.05;101398.38;6067310;23;46661;-96
2021/08/26 17:28:48;;;;;;;;;4.00;4.00;;;;;20.80;48.00;101440.22;6067633;23;45391;-96
2021/08/26 17:31:13;;;;;;;;;3.00;3.00;;;;;21.05;47.91;101489.66;6091917;23;45400;-96
2021/08/26 17:33:39;;;;;;;;;3.00;3.00;;;;;20.93;47.58;101477.22;6092058;23;45211;-96
2021/08/26 17:36:05;;;;;;;;;3.00;2.00;;;;;20.50;47.83;101408.59;6091537;23;46673;-96
2021/08/26 17:38:35;;;;;;;;;2.00;2.00;;;;;20.51;48.24;101410.31;6098386;23;45259;-96
2021/08/26 17:41:04;;;;;;;;;4.00;4.00;;;;;20.40;48.18;101398.56;6159957;22;45264;-96
2021/08/26 17:43:29;;;;;;;;;1.00;1.00;;;;;20.52;48.50;101418.34;6217319;22;45398;-96
2021/08/26 17:45:57;;;;;;;;;4.00;3.00;;;;;20.28;48.25;101380.66;6216794;22;46540;-96
2021/08/26 17:48:26;;;;;;;;;1.25;1.25;;;;;20.69;48.52;101452.16;6217090;22;45413;-96
2021/08/26 17:50:54;;;;;;;;;3.00;1.00;;;;;20.64;48.85;101450.88;6217128;22;45536;-96
2021/08/26 17:53:20;;;;;;;;;1.25;1.25;;;;;20.29;48.95;101405.06;6217247;22;45371;-96
2021/08/26 17:55:56;;;;;;;;;;;;;;;;;;;;;
2021/08/26 17:58:25;;;;;;;;;3.00;2.00;;;;;20.52;49.74;101461.13;6243690;22;72932;-96
2021/08/26 18:00:51;;;;;;;;;6.75;4.00;;;;;20.41;49.57;101443.06;6216770;22;45185;-96
2021/08/26 18:03:20;;;;;;;;;6.75;3.75;;;;;20.18;49.23;101407.94;6217054;22;45505;-96
2021/08/26 18:05:48;;;;;;;;;7.00;5.00;;;;;20.40;49.24;101463.16;6216936;22;47683;-96
2021/08/26 18:08:17;;;;;;;;;3.50;3.00;;;;;20.04;49.31;101405.66;6216964;22;45256;-96
2021/08/26 18:10:43;;;;;;;;;1.75;1.25;;;;;20.41;49.83;101465.72;6216962;22;45372;-96
2021/08/26 18:13:11;;;;;;;;;1.50;1.50;;;;;20.05;49.83;101411.00;6216978;22;45368;-96
2021/08/26 18:15:36;;;;;;;;;2.25;2.25;;;;;20.30;50.04;101464.06;6216559;22;46270;-96
2021/08/26 18:18:02;;;;;;;;;3.00;2.00;;;;;20.37;50.54;101474.34;6217140;22;45184;-96
2021/08/26 18:20:32;;;;;;;;;4.00;2.50;;;;;20.33;50.03;101475.66;6217011;22;45180;-96
2021/08/26 18:22:57;;;;;;;;;2.25;2.25;;;;;20.26;50.63;101464.47;6217266;22;45336;-96
2021/08/26 18:25:23;;;;;;;;;2.00;2.00;;;;;20.32;50.56;101472.06;6216844;22;46591;-96
2021/08/26 18:28:07;;;;;;;;;;;;;;;;;;;;;
2021/08/26 18:30:36;;;;;;;;;4.75;4.25;;;;;19.84;50.58;101403.78;6243574;22;67686;-96
2021/08/26 18:33:07;;;;;;;;;3.00;3.00;;;;;19.88;50.90;101415.31;6216447;22;45522;-96
2021/08/26 18:35:33;;;;;;;;;4.25;4.25;;;;;19.92;50.84;101421.34;6217296;22;46997;-96
2021/08/26 18:38:06;;;;;;;;;3.00;3.00;;;;;19.87;50.64;101424.50;6227883;22;45452;-96
2021/08/26 18:40:43;;;;;;;;;5.75;4.50;;;;;19.81;51.37;101414.13;6242403;22;45393;-96
2021/08/26 18:43:11;;;;;;;;;2.25;2.25;;;;;20.13;51.25;101481.16;6242936;22;45453;-96
2021/08/26 18:45:47;;;;;;;;;5.50;2.75;;;;;19.85;51.37;101435.50;6242412;22;46575;-96
2021/08/26 18:48:20;;;;;;;;;1.50;1.50;;;;;19.81;51.85;101438.66;6242430;22;45417;-96
2021/08/26 18:50:48;;;;;;;;;3.75;3.00;;;;;19.77;51.42;101437.22;6242577;22;45464;-96
2021/08/26 18:53:24;;;;;;;;;;;;;;;;;;;;;
2021/08/26 18:55:53;;;;;;;;;3.25;3.25;;;;;19.95;51.74;101481.00;6242349;22;74579;-96
2021/08/26 18:58:22;;;;;;;;;4.75;4.75;;;;;19.71;52.00;101444.09;6242895;22;45377;-96
2021/08/26 19:00:50;;;;;;;;;7.75;5.00;;;;;19.91;52.32;101477.69;6242992;22;45403;-96
2021/08/26 19:03:23;;;;;;;;;3.00;3.00;;;;;19.63;52.43;101439.34;6242837;22;45284;-96
2021/08/26 19:05:58;;;;;;;;;4.75;4.00;;;;;19.68;52.63;101447.97;6242228;22;47059;-96
2021/08/26 19:08:24;;;;;;;;;6.75;4.25;;;;;19.61;52.84;101444.09;6242837;22;45427;-96
2021/08/26 19:10:50;;;;;;;;;2.00;2.00;;;;;19.99;52.82;101515.13;6243430;22;45204;-96
2021/08/26 19:13:15;;;;;;;;;3.50;3.50;;;;;19.63;52.85;101463.88;6244115;22;45290;-96
2021/08/26 19:15:53;;;;;;;;;5.00;4.00;;;;;19.95;52.87;101514.56;6243480;22;46553;-96
2021/08/26 19:18:31;;;;;;;;;;;;;;;;;;;;;
2021/08/26 19:21:12;;;;;;;;;;;;;;;;;;;;;
2021/08/26 19:23:43;;;;;;;;;3.00;3.00;;;;;19.89;52.96;101525.19;6244166;22;69939;-96
2021/08/26 19:26:09;;;;;;;;;4.75;3.50;;;;;19.95;53.12;101546.44;6243311;22;47714;-96
2021/08/26 19:28:34;;;;;;;;;2.25;2.25;;;;;19.79;53.22;101523.28;6243949;22;45277;-96
2021/08/26 19:31:00;;;;;;;;;2.00;2.00;;;;;19.74;53.76;101516.53;6244210;22;45137;-96
2021/08/26 19:33:26;;;;;;;;;2.00;2.00;;;;;19.44;53.46;101480.22;6244330;22;45275;-96
2021/08/26 19:35:54;;;;;;;;;2.75;2.75;;;;;19.42;53.70;101477.59;6244127;22;47564;-96
2021/08/26 19:38:28;;;;;;;;;2.00;2.00;;;;;19.35;53.51;101476.47;6243456;22;44900;-96
2021/08/26 19:41:02;;;;;;;;;3.00;1.00;;;;;19.71;53.99;101534.00;6243404;22;45321;-96
2021/08/26 19:43:32;;;;;;;;;1.00;1.00;;;;;19.68;53.42;101539.72;6243913;22;45453;-96
2021/08/26 19:46:11;;;;;;;;;;;;;;;;;;;;;
2021/08/26 19:48:39;;;;;;;;;1.00;1.00;;;;;19.33;54.00;101486.63;6243967;22;72924;-96
2021/08/26 19:51:11;;;;;;;;;1.25;1.25;;;;;19.67;54.04;101560.66;6243617;22;45390;-96
2021/08/26 19:53:40;;;;;;;;;1.25;1.25;;;;;19.49;54.31;101541.41;6243903;22;45366;-96
2021/08/26 19:56:15;;;;;;;;;3.00;3.00;;;;;19.60;54.40;101556.75;6243171;22;46626;-96
2021/08/26 19:59:08;;;;;;;;;2.00;2.00;;;;;19.35;53.97;101514.59;6243533;22;45717;-96
2021/08/26 20:01:34;;;;;;;;;3.00;3.00;;;;;19.22;54.01;101507.53;6244057;22;45356;-96
2021/08/26 20:04:02;;;;;;;;;3.25;3.25;;;;;19.32;54.30;101528.47;6243632;22;45409;-96
2021/08/26 20:06:32;;;;;;;;;4.50;3.25;;;;;19.41;53.85;101538.50;6243369;22;48223;-96
2021/08/26 20:09:07;;;;;;;;;1.00;1.00;;;;;19.45;53.82;101559.03;6243602;22;45439;-96
2021/08/26 20:11:45;;;;;;;;;;;;;;;;;;;;;
2021/08/26 20:14:22;;;;;;;;;4.25;4.00;;;;;18.97;54.27;101488.91;6244792;22;69038;-96
2021/08/26 20:16:48;;;;;;;;;3.00;3.00;;;;;19.19;53.95;101534.13;6243347;22;46927;-96
2021/08/26 20:19:14;;;;;;;;;4.25;3.00;;;;;19.34;54.06;101549.09;6243804;22;44647;-96
2021/08/26 20:21:48;;;;;;;;;2.75;2.75;;;;;19.36;54.23;101568.88;6243683;22;44670;-96
2021/08/26 20:24:18;;;;;;;;;3.75;3.25;;;;;19.36;54.21;101573.47;6242949;22;45531;-96
2021/08/26 20:26:44;;;;;;;;;3.00;2.50;;;;;18.95;53.99;101505.41;6243859;22;46806;-96
2021/08/26 20:29:09;;;;;;;;;5.25;3.00;;;;;19.00;54.31;101513.16;6244392;22;45387;-96
2021/08/26 20:31:35;;;;;;;;;4.00;4.00;;;;;19.28;54.59;101568.72;6244102;22;45384;-96
2021/08/26 20:34:03;;;;;;;;;4.00;2.25;;;;;18.94;54.20;101528.16;6243411;22;45356;-96
2021/08/26 20:36:28;;;;;;;;;3.25;2.25;;;;;18.90;54.46;101519.38;6243062;22;46765;-96
2021/08/26 20:39:00;;;;;;;;;5.75;3.75;;;;;18.84;54.52;101524.50;6242689;22;45401;-96
2021/08/26 20:41:30;;;;;;;;;2.00;2.00;;;;;19.30;54.57;101593.06;6242933;22;45306;-96
2021/08/26 20:44:06;;;;;;;;;;;;;;;;;;;;;
2021/08/26 20:46:32;;;;;;;;;4.00;3.25;;;;;18.74;54.66;101502.69;6243758;22;75246;-96
2021/08/26 20:49:10;;;;;;;;;;;;;;;;;;;;;
2021/08/26 20:51:41;;;;;;;;;3.50;3.00;;;;;18.78;54.77;101512.31;6244053;22;68877;-96
2021/08/26 20:54:22;;;;;;;;;;;;;;;;;;;;;
2021/08/26 20:56:56;;;;;;;;;3.50;3.00;;;;;19.11;55.50;101575.66;6243375;22;74522;-96
2021/08/26 20:59:22;;;;;;;;;1.00;1.00;;;;;18.73;55.38;101511.84;6243321;22;45318;-96
2021/08/26 21:02:11;;;;;;;;;4.75;3.75;;;;;19.30;55.22;101606.69;6242546;22;45405;-96
2021/08/26 21:04:39;;;;;;;;;3.25;3.25;;;;;19.32;55.16;101605.53;6243569;22;45176;-96
2021/08/26 21:07:05;;;;;;;;;4.25;3.00;;;;;18.89;55.70;101536.69;6242720;22;47562;-96
2021/08/26 21:09:31;;;;;;;;;4.00;3.00;;;;;19.32;55.39;101616.44;6242868;22;45455;-96
2021/08/26 21:11:57;;;;;;;;;2.00;2.00;;;;;19.07;55.60;101568.78;6242587;22;45281;-96
2021/08/26 21:14:32;;;;;;;;;2.75;2.75;;;;;18.99;55.26;101561.28;6243200;22;45231;-96
2021/08/26 21:17:00;;;;;;;;;4.00;3.00;;;;;19.11;55.02;101580.25;6242784;22;46930;-96
2021/08/26 21:19:26;;;;;;;;;2.25;2.00;;;;;18.81;55.30;101538.38;6243135;22;45132;-96
2021/08/26 21:21:55;;;;;;;;;2.25;1.50;;;;;18.80;55.57;101548.41;6243842;22;45587;-96
2021/08/26 21:24:20;;;;;;;;;3.00;1.50;;;;;18.81;55.39;101541.97;6243556;22;45522;-96
2021/08/26 21:26:46;;;;;;;;;2.75;2.75;;;;;18.68;55.13;101527.69;6242989;22;47751;-96
2021/08/26 21:29:15;;;;;;;;;2.00;2.00;;;;;18.65;55.08;101534.25;6242670;22;45228;-96
2021/08/26 21:31:43;;;;;;;;;3.00;3.00;;;;;18.62;55.50;101534.53;6242613;22;45170;-96
2021/08/26 21:34:13;;;;;;;;;4.00;2.00;;;;;18.90;55.29;101568.34;6242488;22;45358;-96
2021/08/26 21:36:48;;;;;;;;;3.00;2.00;;;;;18.53;55.42;101510.84;6242519;22;47087;-96
2021/08/26 21:39:14;;;;;;;;;4.75;3.00;;;;;18.58;55.53;101530.38;6242583;22;45208;-96
2021/08/26 21:41:39;;;;;;;;;3.50;3.00;;;;;18.48;55.45;101523.00;6242580;22;45335;-96
2021/08/26 21:44:05;;;;;;;;;2.25;2.25;;;;;18.93;55.81;101592.59;6242727;22;45192;-96
2021/08/26 21:46:31;;;;;;;;;3.75;2.50;;;;;18.68;55.69;101560.31;6242575;22;46890;-96
2021/08/26 21:48:58;;;;;;;;;4.50;3.75;;;;;18.42;55.83;101518.09;6242668;22;45296;-96
2021/08/26 21:51:25;;;;;;;;;3.00;2.00;;;;;18.43;55.90;101521.66;6243392;22;45248;-96
2021/08/26 21:53:51;;;;;;;;;3.00;3.00;;;;;18.58;55.90;101547.53;6243416;22;45411;-96
2021/08/26 21:56:27;;;;;;;;;4.25;3.25;;;;;18.47;55.82;101531.28;6243081;22;45371;-96
2021/08/26 21:58:53;;;;;;;;;4.00;4.00;;;;;18.57;55.83;101553.13;6243429;22;45226;-96
2021/08/26 22:01:19;;;;;;;;;7.00;5.50;;;;;18.68;56.29;101563.94;6242924;22;45429;-96
2021/08/26 22:03:47;;;;;;;;;3.00;3.00;;;;;18.60;55.95;101564.59;6242330;22;45619;-96
2021/08/26 22:06:16;;;;;;;;;2.75;2.25;;;;;18.73;56.15;101583.44;6242958;22;47657;-96
2021/08/26 22:10:01;;;;;;;;;3.25;3.25;;;;;18.27;56.47;101516.69;6244350;22;45470;-96
2021/08/26 22:12:30;;;;;;;;;2.75;2.75;;;;;18.57;56.29;101567.56;6153465;23;45409;-96
2021/08/26 22:15:08;;;;;;;;;;;;;;;;;;;;;
2021/08/26 22:17:37;;;;;;;;;4.00;4.00;;;;;18.65;55.94;101582.38;6150428;23;75321;-96
2021/08/26 22:20:04;;;;;;;;;4.00;3.00;;;;;18.70;56.17;101593.69;6126825;23;45483;-96
2021/08/26 22:22:30;;;;;;;;;5.00;3.25;;;;;18.36;55.94;101536.78;6126228;23;45357;-96
2021/08/26 22:24:57;;;;;;;;;2.50;2.50;;;;;18.90;56.20;101632.78;6127149;23;45488;-96
2021/08/26 22:27:23;;;;;;;;;2.00;2.00;;;;;18.59;56.20;101573.75;6126498;23;47117;-96
2021/08/26 22:29:51;;;;;;;;;3.50;3.00;;;;;18.35;56.10;101535.06;6128528;23;45438;-96
2021/08/26 22:33:10;;;;;;;;;;;;;;;;;;;;;
2021/08/26 22:35:37;;;;;;;;;1.75;1.25;;;;;18.23;56.46;101529.69;6152194;23;45058;-96
2021/08/26 22:38:30;;;;;;;;;;;;;;;;;;;;;
2021/08/26 22:41:49;;;;;;;;;;;;;;;;;;;;;
2021/08/26 22:45:20;;;;;;;;;;;;;;;;;;;;;
2021/08/26 22:48:40;;;;;;;;;;;;;;;;;;;;;
2021/08/26 22:55:00;;;;;;;;;;;;;;;;;;;;;
